createdAt,value
2023-01-09T00:00:11.635Z,99593.09
2023-01-09T00:02:40.907Z,99586.19
2023-01-09T00:05:09.619Z,99578.56
2023-01-09T00:07:37.517Z,99579.66
2023-01-09T00:10:07.380Z,99576.50
2023-01-09T00:12:37.169Z,99577.31
2023-01-09T00:15:08.732Z,99580.25
2023-01-09T00:17:36.909Z,99579.72
2023-01-09T00:20:06.813Z,99572.75
2023-01-09T00:22:35.187Z,99577.38
2023-01-09T00:25:04.546Z,99570.97
2023-01-09T00:27:33.028Z,99573.75
2023-01-09T00:30:01.847Z,99576.53
2023-01-09T00:32:31.773Z,99567.41
2023-01-09T00:35:00.687Z,99549.69
2023-01-09T00:37:28.920Z,99550.91
2023-01-09T00:39:58.024Z,99553.81
2023-01-09T00:42:29.062Z,99555.63
2023-01-09T00:45:00.576Z,99547.88
2023-01-09T00:47:36.917Z,99538.19
2023-01-09T00:50:08.796Z,99538.72
2023-01-09T00:52:38.089Z,99540.25
2023-01-09T00:55:07.802Z,99535.84
2023-01-09T00:57:35.995Z,99534.34
2023-01-09T01:00:04.993Z,99524.88
2023-01-09T01:02:34.414Z,99522.97
2023-01-09T01:05:23.145Z,99511.88
2023-01-09T01:07:51.258Z,99518.69
2023-01-09T01:10:21.576Z,99520.50
2023-01-09T01:12:50.762Z,99519.91
2023-01-09T01:15:19.558Z,99516.06
2023-01-09T01:17:50.113Z,99523.25
2023-01-09T01:20:20.869Z,99511.50
2023-01-09T01:22:49.120Z,99516.47
2023-01-09T01:25:18.075Z,99514.53
2023-01-09T01:27:46.408Z,99505.13
2023-01-09T01:30:16.700Z,99500.13
2023-01-09T01:32:47.041Z,99509.97
2023-01-09T01:35:17.763Z,99510.53
2023-01-09T01:37:49.816Z,99514.28
2023-01-09T01:40:19.762Z,99501.69
2023-01-09T01:42:50.306Z,99500.03
2023-01-09T01:45:20.403Z,99498.09
2023-01-09T01:47:52.462Z,99494.22
2023-01-09T01:50:26.434Z,99496.97
2023-01-09T01:52:58.339Z,99493.13
2023-01-09T01:55:26.765Z,99485.91
2023-01-09T01:57:58.621Z,99478.16
2023-01-09T02:00:31.603Z,99471.25
2023-01-09T02:03:00.867Z,99466.53
2023-01-09T02:05:30.864Z,99467.22
2023-01-09T02:07:58.855Z,99457.53
2023-01-09T02:10:26.836Z,99462.00
2023-01-09T02:12:55.431Z,99459.38
2023-01-09T02:15:23.915Z,99458.97
2023-01-09T02:18:09.435Z,99475.59
2023-01-09T02:20:47.819Z,99470.75
2023-01-09T02:23:47.589Z,99472.81
2023-01-09T02:26:57.882Z,99471.84
2023-01-09T02:30:11.569Z,99463.69
2023-01-09T02:32:46.862Z,99468.81
2023-01-09T02:35:23.071Z,99467.56
2023-01-09T02:37:58.841Z,99468.28
2023-01-09T02:40:29.937Z,99466.03
2023-01-09T02:42:59.069Z,99463.00
2023-01-09T02:45:27.295Z,99462.72
2023-01-09T02:47:59.443Z,99467.16
2023-01-09T02:50:34.948Z,99475.19
2023-01-09T02:53:24.129Z,99468.56
2023-01-09T02:56:12.714Z,99468.97
2023-01-09T02:58:59.846Z,99459.66
2023-01-09T03:01:30.586Z,99456.50
2023-01-09T03:04:04.116Z,99456.94
2023-01-09T03:06:38.024Z,99452.50
2023-01-09T03:09:09.501Z,99450.13
2023-01-09T03:11:45.472Z,99446.66
2023-01-09T03:14:15.861Z,99448.06
2023-01-09T03:16:47.790Z,99448.91
2023-01-09T03:19:20.687Z,99437.13
2023-01-09T03:21:51.669Z,99440.72
2023-01-09T03:24:19.902Z,99441.84
2023-01-09T03:26:48.788Z,99434.19
2023-01-09T03:29:17.575Z,99431.72
2023-01-09T03:31:46.000Z,99421.19
2023-01-09T03:34:14.077Z,99423.91
2023-01-09T03:36:43.500Z,99414.50
2023-01-09T03:39:11.557Z,99422.63
2023-01-09T03:41:39.649Z,99414.44
2023-01-09T03:44:07.998Z,99408.19
2023-01-09T03:46:35.871Z,99402.53
2023-01-09T03:49:04.277Z,99395.56
2023-01-09T03:51:33.043Z,99397.78
2023-01-09T03:54:02.396Z,99397.72
2023-01-09T03:56:30.614Z,99398.31
2023-01-09T03:59:01.447Z,99403.44
2023-01-09T04:01:29.624Z,99400.78
2023-01-09T04:03:57.839Z,99395.22
2023-01-09T04:06:26.353Z,99396.38
2023-01-09T04:08:54.381Z,99405.16
2023-01-09T04:11:24.115Z,99391.63
2023-01-09T04:13:53.023Z,99389.16
2023-01-09T04:16:21.087Z,99384.41
2023-01-09T04:18:49.464Z,99377.72
2023-01-09T04:21:17.756Z,99378.66
2023-01-09T04:23:45.836Z,99378.28
2023-01-09T04:26:13.941Z,99372.09
2023-01-09T04:28:44.420Z,99384.91
2023-01-09T04:31:12.903Z,99374.41
2023-01-09T04:33:40.989Z,99386.84
2023-01-09T04:36:11.647Z,99376.88
2023-01-09T04:38:39.880Z,99367.34
2023-01-09T04:41:08.001Z,99365.94
2023-01-09T04:43:35.958Z,99362.47
2023-01-09T04:46:06.296Z,99356.59
2023-01-09T04:48:34.958Z,99356.59
2023-01-09T04:51:03.107Z,99362.25
2023-01-09T04:53:31.385Z,99357.97
2023-01-09T04:55:59.894Z,99355.41
2023-01-09T04:58:28.300Z,99349.75
2023-01-09T05:00:56.479Z,99344.63
2023-01-09T05:03:25.861Z,99341.72
2023-01-09T05:05:53.762Z,99345.94
2023-01-09T05:08:22.051Z,99354.97
2023-01-09T05:10:51.899Z,99354.06
2023-01-09T05:13:20.971Z,99353.38
2023-01-09T05:15:48.902Z,99346.31
2023-01-09T05:18:16.907Z,99343.44
2023-01-09T05:20:47.522Z,99340.31
2023-01-09T05:23:15.912Z,99335.66
2023-01-09T05:25:44.203Z,99343.97
2023-01-09T05:28:12.431Z,99338.03
2023-01-09T05:30:40.444Z,99334.88
2023-01-09T05:33:09.100Z,99334.94
2023-01-09T05:35:38.974Z,99344.59
2023-01-09T05:38:08.688Z,99338.41
2023-01-09T05:40:40.275Z,99342.00
2023-01-09T05:43:09.683Z,99338.34
2023-01-09T05:45:38.495Z,99327.28
2023-01-09T05:48:07.885Z,99330.91
2023-01-09T05:50:35.939Z,99324.25
2023-01-09T05:53:04.323Z,99324.94
2023-01-09T05:55:34.089Z,99328.94
2023-01-09T05:58:05.147Z,99327.59
2023-01-09T06:00:34.058Z,99320.38
2023-01-09T06:03:02.393Z,99320.66
2023-01-09T06:05:31.359Z,99318.16
2023-01-09T06:07:59.404Z,99316.91
2023-01-09T06:10:27.998Z,99308.75
2023-01-09T06:12:58.051Z,99308.56
2023-01-09T06:15:26.149Z,99313.81
2023-01-09T06:17:55.159Z,99314.13
2023-01-09T06:20:24.037Z,99308.75
2023-01-09T06:22:53.170Z,99304.16
2023-01-09T06:25:21.882Z,99304.47
2023-01-09T06:27:52.312Z,99297.25
2023-01-09T06:30:22.485Z,99296.81
2023-01-09T06:32:50.893Z,99291.31
2023-01-09T06:35:20.546Z,99304.72
2023-01-09T06:37:50.998Z,99302.50
2023-01-09T06:40:21.122Z,99293.13
2023-01-09T06:42:49.896Z,99292.81
2023-01-09T06:45:18.959Z,99293.25
2023-01-09T06:47:50.147Z,99296.41
2023-01-09T06:50:19.965Z,99292.44
2023-01-09T06:52:48.020Z,99283.81
2023-01-09T06:55:17.919Z,99288.00
2023-01-09T06:57:46.777Z,99288.78
2023-01-09T07:00:16.215Z,99284.09
2023-01-09T07:02:44.470Z,99283.81
2023-01-09T07:05:13.987Z,99280.19
2023-01-09T07:07:42.834Z,99281.56
2023-01-09T07:10:12.964Z,99282.13
2023-01-09T07:12:42.177Z,99263.84
2023-01-09T07:15:12.818Z,99266.34
2023-01-09T07:17:40.863Z,99265.97
2023-01-09T07:20:11.030Z,99266.63
2023-01-09T07:22:41.831Z,99275.38
2023-01-09T07:25:09.965Z,99266.72
2023-01-09T07:27:38.664Z,99265.44
2023-01-09T07:30:08.781Z,99266.94
2023-01-09T07:32:38.723Z,99269.44
2023-01-09T07:35:08.429Z,99267.78
2023-01-09T07:37:36.751Z,99280.94
2023-01-09T07:40:08.097Z,99284.25
2023-01-09T07:42:39.142Z,99280.63
2023-01-09T07:45:08.894Z,99283.81
2023-01-09T07:47:37.161Z,99288.09
2023-01-09T07:50:06.762Z,99284.19
2023-01-09T07:52:35.915Z,99288.31
2023-01-09T07:55:04.570Z,99281.59
2023-01-09T07:57:33.987Z,99291.31
2023-01-09T08:00:03.614Z,99290.72
2023-01-09T08:02:39.662Z,99294.84
2023-01-09T08:05:13.606Z,99298.91
2023-01-09T08:07:41.827Z,99303.22
2023-01-09T08:10:12.138Z,99309.38
2023-01-09T08:12:45.336Z,99302.91
2023-01-09T08:15:13.861Z,99303.59
2023-01-09T08:17:44.548Z,99307.63
2023-01-09T08:20:15.270Z,99303.06
2023-01-09T08:22:43.887Z,99303.63
2023-01-09T08:25:12.945Z,99303.44
2023-01-09T08:27:41.494Z,99300.03
2023-01-09T08:30:13.939Z,99304.38
2023-01-09T08:32:42.574Z,99305.28
2023-01-09T08:35:11.853Z,99300.19
2023-01-09T08:37:42.483Z,99299.13
2023-01-09T08:40:12.954Z,99309.41
2023-01-09T08:42:58.105Z,99303.03
2023-01-09T08:45:45.532Z,99302.56
2023-01-09T08:48:13.789Z,99314.25
2023-01-09T08:50:42.508Z,99322.06
2023-01-09T08:53:11.489Z,99314.31
2023-01-09T08:55:39.583Z,99318.75
2023-01-09T08:58:07.859Z,99330.03
2023-01-09T09:00:37.733Z,99325.63
2023-01-09T09:03:07.099Z,99331.22
2023-01-09T09:05:36.879Z,99329.25
2023-01-09T09:08:06.234Z,99335.81
2023-01-09T09:10:36.521Z,99332.94
2023-01-09T09:13:07.027Z,99338.00
2023-01-09T09:15:35.084Z,99333.84
2023-01-09T09:18:06.990Z,99329.78
2023-01-09T09:20:37.605Z,99323.31
2023-01-09T09:23:08.197Z,99327.06
2023-01-09T09:25:40.623Z,99329.63
2023-01-09T09:28:10.882Z,99336.25
2023-01-09T09:30:40.038Z,99327.38
2023-01-09T09:33:10.267Z,99342.63
2023-01-09T09:35:39.370Z,99345.25
2023-01-09T09:38:08.528Z,99359.72
2023-01-09T09:40:47.172Z,99355.81
2023-01-09T09:43:46.095Z,99349.06
2023-01-09T09:46:23.508Z,99342.31
2023-01-09T09:48:54.506Z,99350.22
2023-01-09T09:51:35.419Z,99353.50
2023-01-09T09:54:12.941Z,99354.31
2023-01-09T09:56:45.489Z,99353.84
2023-01-09T09:59:16.980Z,99355.56
2023-01-09T10:01:53.931Z,99363.00
2023-01-09T10:04:26.032Z,99365.38
2023-01-09T10:06:57.818Z,99358.63
2023-01-09T10:09:35.898Z,99365.91
2023-01-09T10:12:10.374Z,99361.59
2023-01-09T10:14:38.600Z,99355.81
2023-01-09T10:17:18.952Z,99363.78
2023-01-09T10:20:05.295Z,99360.03
2023-01-09T10:22:40.089Z,99360.19
2023-01-09T10:25:16.691Z,99375.03
2023-01-09T10:27:57.950Z,99369.75
2023-01-09T10:30:31.067Z,99375.75
2023-01-09T10:33:28.643Z,99381.19
2023-01-09T10:36:18.498Z,99379.88
2023-01-09T10:38:49.161Z,99385.16
2023-01-09T10:41:22.185Z,99386.38
2023-01-09T10:43:55.341Z,99383.72
2023-01-09T10:46:28.159Z,99377.41
2023-01-09T10:49:00.248Z,99376.78
2023-01-09T10:51:33.837Z,99389.50
2023-01-09T10:54:01.816Z,99393.81
2023-01-09T10:56:35.226Z,99385.91
2023-01-09T10:59:04.472Z,99390.75
2023-01-09T11:01:34.965Z,99394.88
2023-01-09T11:04:03.725Z,99402.47
2023-01-09T11:06:38.601Z,99410.41
2023-01-09T11:09:08.344Z,99418.28
2023-01-09T11:11:38.834Z,99418.81
2023-01-09T11:14:11.600Z,99413.16
2023-01-09T11:16:52.276Z,99421.28
2023-01-09T11:19:20.557Z,99418.63
2023-01-09T11:21:50.615Z,99419.44
2023-01-09T11:24:33.728Z,99421.09
2023-01-09T11:27:24.861Z,99427.53
2023-01-09T11:30:29.714Z,99432.00
2023-01-09T11:32:59.587Z,99432.19
2023-01-09T11:35:34.315Z,99439.63
2023-01-09T11:38:13.030Z,99450.53
2023-01-09T11:40:53.200Z,99455.66
2023-01-09T11:43:30.430Z,99454.16
2023-01-09T11:46:01.914Z,99447.34
2023-01-09T11:48:41.613Z,99453.50
2023-01-09T11:51:22.374Z,99451.69
2023-01-09T11:54:18.495Z,99445.59
2023-01-09T11:56:50.411Z,99446.44
2023-01-09T11:59:28.673Z,99452.25
2023-01-09T12:02:45.743Z,99459.34
2023-01-09T12:05:23.077Z,99465.81
2023-01-09T12:08:15.393Z,99472.75
2023-01-09T12:11:12.139Z,99474.91
2023-01-09T12:13:50.795Z,99481.84
2023-01-09T12:16:28.035Z,99475.75
2023-01-09T12:19:05.869Z,99489.97
2023-01-09T12:21:38.677Z,99488.13
2023-01-09T12:24:28.801Z,99492.28
2023-01-09T12:27:06.028Z,99492.94
2023-01-09T12:30:13.973Z,99482.84
2023-01-09T12:32:51.678Z,99479.03
2023-01-09T12:35:30.612Z,99471.09
2023-01-09T12:38:18.652Z,99477.03
2023-01-09T12:41:08.202Z,99486.81
2023-01-09T12:43:44.375Z,99488.59
2023-01-09T12:46:17.100Z,99494.25
2023-01-09T12:48:59.461Z,99485.28
2023-01-09T12:51:33.292Z,99493.03
2023-01-09T12:54:07.304Z,99488.19
2023-01-09T12:56:40.431Z,99491.56
2023-01-09T12:59:21.805Z,99491.28
2023-01-09T13:01:51.141Z,99487.47
2023-01-09T13:04:23.564Z,99487.09
2023-01-09T13:06:59.425Z,99497.31
2023-01-09T13:09:29.024Z,99493.97
2023-01-09T13:12:03.674Z,99498.50
2023-01-09T13:14:42.324Z,99500.22
2023-01-09T13:17:17.523Z,99497.44
2023-01-09T13:19:46.180Z,99512.97
2023-01-09T13:22:15.230Z,99494.22
2023-01-09T13:25:00.492Z,99502.19
2023-01-09T13:27:34.115Z,99498.25
2023-01-09T13:30:15.807Z,99497.41
2023-01-09T13:32:53.243Z,99497.41
2023-01-09T13:35:21.829Z,99501.84
2023-01-09T13:37:57.233Z,99494.25
2023-01-09T13:40:35.755Z,99497.06
2023-01-09T13:43:06.372Z,99490.63
2023-01-09T13:45:37.675Z,99487.63
2023-01-09T13:48:30.292Z,99508.00
2023-01-09T13:51:55.184Z,99511.47
2023-01-09T13:55:16.129Z,99519.41
2023-01-09T13:57:46.978Z,99530.81
2023-01-09T14:00:54.085Z,99533.28
2023-01-09T14:03:27.126Z,99543.59
2023-01-09T14:06:13.854Z,99554.81
2023-01-09T14:08:44.394Z,99556.47
2023-01-09T14:11:20.892Z,99562.25
2023-01-09T14:14:12.229Z,99562.81
2023-01-09T14:16:42.100Z,99565.06
2023-01-09T14:19:28.047Z,99570.06
2023-01-09T14:21:58.084Z,99569.53
2023-01-09T14:24:30.585Z,99581.13
2023-01-09T14:27:02.501Z,99584.09
2023-01-09T14:29:47.552Z,99587.25
2023-01-09T14:32:47.401Z,99594.69
2023-01-09T14:35:22.755Z,99595.69
2023-01-09T14:38:02.745Z,99596.50
2023-01-09T14:40:34.263Z,99601.59
2023-01-09T14:43:13.995Z,99614.34
2023-01-09T14:45:51.960Z,99612.03
2023-01-09T14:48:27.205Z,99626.63
2023-01-09T14:50:59.927Z,99627.94
2023-01-09T14:53:32.613Z,99625.47
2023-01-09T14:56:06.031Z,99631.56
2023-01-09T14:58:35.813Z,99622.16
2023-01-09T15:01:06.353Z,99624.44
2023-01-09T15:03:38.393Z,99626.25
2023-01-09T15:06:08.378Z,99628.06
2023-01-09T15:08:42.187Z,99628.56
2023-01-09T15:11:12.972Z,99630.22
2023-01-09T15:13:47.005Z,99632.03
2023-01-09T15:16:19.062Z,99636.13
2023-01-09T15:18:49.428Z,99635.47
2023-01-09T15:21:22.958Z,99642.56
2023-01-09T15:23:51.672Z,99643.91
2023-01-09T15:26:27.830Z,99655.84
2023-01-09T15:29:02.299Z,99654.47
2023-01-09T15:31:31.644Z,99662.06
2023-01-09T15:34:00.204Z,99669.19
2023-01-09T15:36:31.510Z,99669.84
2023-01-09T15:39:00.752Z,99673.47
2023-01-09T15:41:48.297Z,99665.06
2023-01-09T15:44:19.875Z,99669.69
2023-01-09T15:46:50.382Z,99667.75
2023-01-09T15:49:20.068Z,99674.19
2023-01-09T15:51:50.473Z,99666.69
2023-01-09T15:54:23.560Z,99675.75
2023-01-09T15:56:52.368Z,99682.84
2023-01-09T15:59:27.097Z,99696.38
2023-01-09T16:02:21.059Z,99698.72
2023-01-09T16:04:52.013Z,99699.53
2023-01-09T16:07:22.478Z,99700.19
2023-01-09T16:09:53.346Z,99700.19
2023-01-09T16:12:24.173Z,99702.25
2023-01-09T16:14:53.270Z,99708.16
2023-01-09T16:17:23.975Z,99708.88
2023-01-09T16:19:58.954Z,99711.50
2023-01-09T16:22:30.026Z,99710.84
2023-01-09T16:25:26.948Z,99707.59
2023-01-09T16:28:21.225Z,99707.13
2023-01-09T16:30:54.756Z,99706.63
2023-01-09T16:33:26.127Z,99711.25
2023-01-09T16:35:56.012Z,99711.53
2023-01-09T16:38:25.991Z,99712.34
2023-01-09T16:41:22.738Z,99706.53
2023-01-09T16:43:51.819Z,99703.22
2023-01-09T16:46:21.798Z,99716.06
2023-01-09T16:48:50.151Z,99725.13
2023-01-09T16:51:21.802Z,99735.50
2023-01-09T16:53:52.399Z,99742.72
2023-01-09T16:56:23.118Z,99740.31
2023-01-09T16:58:53.905Z,99745.00
2023-01-09T17:01:23.997Z,99745.44
2023-01-09T17:03:52.960Z,99733.47
2023-01-09T17:06:24.669Z,99732.59
2023-01-09T17:08:54.540Z,99731.78
2023-01-09T17:11:24.266Z,99726.44
2023-01-09T17:13:53.761Z,99731.78
2023-01-09T17:16:22.100Z,99732.03
2023-01-09T17:18:52.239Z,99723.84
2023-01-09T17:21:22.268Z,99721.13
2023-01-09T17:24:11.329Z,99726.44
2023-01-09T17:26:59.847Z,99726.44
2023-01-09T17:29:28.560Z,99730.38
2023-01-09T17:31:57.526Z,99733.06
2023-01-09T17:34:28.096Z,99734.34
2023-01-09T17:36:56.354Z,99728.41
2023-01-09T17:39:24.900Z,99744.06
2023-01-09T17:41:54.786Z,99743.63
2023-01-09T17:44:23.853Z,99750.94
2023-01-09T17:46:52.082Z,99758.50
2023-01-09T17:49:24.354Z,99762.34
2023-01-09T17:51:52.715Z,99757.88
2023-01-09T17:54:21.967Z,99760.53
2023-01-09T17:56:52.463Z,99763.16
2023-01-09T17:59:22.166Z,99754.38
2023-01-09T18:01:50.336Z,99760.31
2023-01-09T18:04:18.287Z,99759.78
2023-01-09T18:06:49.243Z,99768.59
2023-01-09T18:09:19.218Z,99778.13
2023-01-09T18:11:48.680Z,99776.66
2023-01-09T18:14:17.595Z,99781.13
2023-01-09T18:16:47.177Z,99776.22
2023-01-09T18:19:15.519Z,99784.38
2023-01-09T18:21:44.682Z,99794.13
2023-01-09T18:24:13.023Z,99780.28
2023-01-09T18:26:41.168Z,99794.31
2023-01-09T18:29:13.809Z,99790.03
2023-01-09T18:31:42.414Z,99791.84
2023-01-09T18:34:12.055Z,99801.13
2023-01-09T18:36:40.502Z,99802.28
2023-01-09T18:39:10.745Z,99805.97
2023-01-09T18:41:39.710Z,99815.41
2023-01-09T18:44:07.830Z,99804.84
2023-01-09T18:46:36.198Z,99818.94
2023-01-09T18:49:05.312Z,99813.81
2023-01-09T18:51:36.749Z,99819.78
2023-01-09T18:54:08.049Z,99825.84
2023-01-09T18:56:36.734Z,99830.28
2023-01-09T18:59:05.064Z,99834.13
2023-01-09T19:01:33.924Z,99832.31
2023-01-09T19:04:03.716Z,99838.78
2023-01-09T19:06:33.810Z,99848.38
2023-01-09T19:09:03.445Z,99845.91
2023-01-09T19:11:31.703Z,99849.47
2023-01-09T19:14:00.046Z,99855.31
2023-01-09T19:16:28.718Z,99851.81
2023-01-09T19:19:00.506Z,99848.31
2023-01-09T19:21:30.389Z,99858.75
2023-01-09T19:23:58.909Z,99859.06
2023-01-09T19:26:30.869Z,99862.38
2023-01-09T19:28:58.885Z,99858.75
2023-01-09T19:31:29.973Z,99869.78
2023-01-09T19:33:58.776Z,99869.94
2023-01-09T19:36:27.249Z,99864.91
2023-01-09T19:38:57.863Z,99866.72
2023-01-09T19:41:26.972Z,99872.56
2023-01-09T19:43:58.065Z,99877.09
2023-01-09T19:46:28.385Z,99871.50
2023-01-09T19:48:58.992Z,99874.97
2023-01-09T19:51:28.157Z,99878.13
2023-01-09T19:56:29.109Z,99880.34
2023-01-09T19:58:59.986Z,99882.00
2023-01-09T20:01:29.840Z,99880.66
2023-01-09T20:04:03.013Z,99885.25
2023-01-09T20:06:32.015Z,99879.69
2023-01-09T20:09:01.427Z,99890.09
2023-01-09T20:11:32.708Z,99887.59
2023-01-09T20:14:04.101Z,99889.28
2023-01-09T20:16:32.391Z,99896.22
2023-01-09T20:19:06.290Z,99896.94
2023-01-09T20:21:34.578Z,99902.19
2023-01-09T20:24:05.216Z,99901.19
2023-01-09T20:26:34.071Z,99904.66
2023-01-09T20:29:08.734Z,99904.81
2023-01-09T20:31:37.535Z,99903.38
2023-01-09T20:34:05.593Z,99907.22
2023-01-09T20:36:34.893Z,99911.69
2023-01-09T20:39:07.443Z,99912.75
2023-01-09T20:41:37.494Z,99912.75
2023-01-09T20:44:08.860Z,99921.97
2023-01-09T20:46:38.337Z,99932.81
2023-01-09T20:49:07.853Z,99935.94
2023-01-09T20:51:36.356Z,99940.22
2023-01-09T20:54:05.123Z,99945.06
2023-01-09T20:56:34.309Z,99952.56
2023-01-09T20:59:02.382Z,99953.25
2023-01-09T21:01:32.133Z,99947.81
2023-01-09T21:04:00.784Z,99956.41
2023-01-09T21:06:29.126Z,99952.16
2023-01-09T21:08:57.555Z,99959.22
2023-01-09T21:11:25.771Z,99964.13
2023-01-09T21:13:53.692Z,99958.75
2023-01-09T21:16:24.838Z,99965.69
2023-01-09T21:18:55.262Z,99972.38
2023-01-09T21:21:26.361Z,99978.91
2023-01-09T21:23:57.339Z,99980.41
2023-01-09T21:26:29.000Z,99987.59
2023-01-09T21:28:58.634Z,99989.78
2023-01-09T21:31:30.857Z,100000.66
2023-01-09T21:34:02.935Z,100001.50
2023-01-09T21:36:31.120Z,100014.47
2023-01-09T21:39:02.213Z,100005.34
2023-01-09T21:41:48.071Z,100003.59
2023-01-09T21:44:46.307Z,100023.09
2023-01-09T21:47:18.059Z,100015.31
2023-01-09T21:49:47.726Z,100030.34
2023-01-09T21:52:18.283Z,100032.69
2023-01-09T21:54:48.941Z,100035.63
2023-01-09T21:57:19.385Z,100031.59
2023-01-09T21:59:49.398Z,100044.53
2023-01-09T22:02:18.676Z,100048.84
2023-01-09T22:04:51.384Z,100050.06
2023-01-09T22:07:20.056Z,100069.88
2023-01-09T22:09:51.669Z,100071.13
2023-01-09T22:12:20.311Z,100075.97
2023-01-09T22:14:48.712Z,100077.50
2023-01-09T22:17:19.240Z,100083.75
2023-01-09T22:19:51.055Z,100094.03
2023-01-09T22:22:21.678Z,100092.56
2023-01-09T22:24:51.645Z,100094.91
2023-01-09T22:27:20.855Z,100096.28
2023-01-09T22:29:48.845Z,100109.13
2023-01-09T22:32:16.750Z,100109.66
2023-01-09T22:34:44.903Z,100112.31
2023-01-09T22:37:16.424Z,100114.41
2023-01-09T22:39:46.639Z,100116.34
2023-01-09T22:42:16.670Z,100117.44
2023-01-09T22:44:47.458Z,100121.06
2023-01-09T22:47:15.730Z,100126.34
2023-01-09T22:49:52.637Z,100133.59
2023-01-09T22:52:23.846Z,100140.44
2023-01-09T22:54:51.788Z,100140.00
2023-01-09T22:57:20.117Z,100143.06
2023-01-09T22:59:49.306Z,100152.38
2023-01-09T23:02:19.815Z,100154.91
2023-01-09T23:04:49.147Z,100153.41
2023-01-09T23:07:17.613Z,100162.28
2023-01-09T23:09:49.316Z,100156.44
2023-01-09T23:12:18.462Z,100151.16
2023-01-09T23:14:46.664Z,100161.44
2023-01-09T23:17:14.838Z,100166.59
2023-01-09T23:19:43.041Z,100177.44
2023-01-09T23:22:13.453Z,100180.34
2023-01-09T23:24:41.797Z,100178.00
2023-01-09T23:27:11.781Z,100184.81
2023-01-09T23:29:40.118Z,100186.19
2023-01-09T23:32:08.575Z,100196.63
2023-01-09T23:34:36.734Z,100186.34
2023-01-09T23:37:08.825Z,100188.44
2023-01-09T23:39:36.914Z,100194.09
2023-01-09T23:42:24.554Z,100195.09
2023-01-09T23:44:56.485Z,100202.88
2023-01-09T23:47:24.585Z,100201.19
2023-01-09T23:49:54.375Z,100207.59
2023-01-09T23:52:22.268Z,100213.16
2023-01-09T23:54:51.316Z,100220.41
2023-01-09T23:57:20.210Z,100215.13
2023-01-09T23:59:49.187Z,100230.97
